createdAt,value
2018-11-03T00:00:16.923Z,2.80
2018-11-03T00:02:45.661Z,3.00
2018-11-03T00:05:12.659Z,3.10
2018-11-03T00:07:39.713Z,3.30
2018-11-03T00:10:07.575Z,3.00
2018-11-03T00:12:34.521Z,3.17
2018-11-03T00:15:01.518Z,3.43
2018-11-03T00:17:28.516Z,3.40
2018-11-03T00:19:55.564Z,3.20
2018-11-03T00:22:22.619Z,3.47
2018-11-03T00:24:49.663Z,3.60
2018-11-03T00:27:16.711Z,3.70
2018-11-03T00:29:43.765Z,3.17
2018-11-03T00:32:10.807Z,3.20
2018-11-03T00:34:37.856Z,3.33
2018-11-03T00:37:04.911Z,3.00
2018-11-03T00:39:31.953Z,2.80
2018-11-03T00:41:59.002Z,2.70
2018-11-03T00:44:26.081Z,2.63
2018-11-03T00:46:53.128Z,2.63
2018-11-03T00:49:20.865Z,2.40
2018-11-03T00:51:49.816Z,2.60
2018-11-03T00:54:16.810Z,2.70
2018-11-03T00:56:43.855Z,2.63
2018-11-03T00:59:10.901Z,2.30
2018-11-03T01:01:37.848Z,2.60
2018-11-03T01:04:05.721Z,2.50
2018-11-03T01:06:32.873Z,2.53
2018-11-03T01:08:59.916Z,2.60
2018-11-03T01:11:26.980Z,2.40
2018-11-03T01:13:54.018Z,2.40
2018-11-03T01:16:22.415Z,2.20
2018-11-03T01:18:49.444Z,2.20
2018-11-03T01:21:16.393Z,2.43
2018-11-03T01:23:43.991Z,2.00
2018-11-03T01:26:11.002Z,1.87
2018-11-03T01:28:38.048Z,2.00
2018-11-03T01:31:06.425Z,2.00
2018-11-03T01:33:33.575Z,1.80
2018-11-03T01:36:00.624Z,1.80
2018-11-03T01:38:28.185Z,2.33
2018-11-03T01:40:55.233Z,2.23
2018-11-03T01:43:22.287Z,2.10
2018-11-03T01:45:49.638Z,2.10
2018-11-03T01:48:16.686Z,2.00
2018-11-03T01:50:43.741Z,2.53
2018-11-03T01:53:11.295Z,2.30
2018-11-03T01:55:38.348Z,2.27
2018-11-03T01:58:08.055Z,2.13
2018-11-03T02:00:35.110Z,2.40
2018-11-03T02:03:02.152Z,2.27
2018-11-03T02:05:29.145Z,2.17
2018-11-03T02:07:56.152Z,2.17
2018-11-03T02:10:41.599Z,2.40
2018-11-03T02:13:27.192Z,2.20
2018-11-03T02:15:54.266Z,2.47
2018-11-03T02:18:21.308Z,2.30
2018-11-03T02:20:48.357Z,2.60
2018-11-03T02:23:15.411Z,2.40
2018-11-03T02:25:42.454Z,2.50
2018-11-03T02:28:09.503Z,2.40
2018-11-03T02:30:36.557Z,3.07
2018-11-03T02:33:04.014Z,2.40
2018-11-03T02:35:31.016Z,2.40
2018-11-03T02:37:58.010Z,2.67
2018-11-03T02:40:25.052Z,2.53
2018-11-03T02:42:52.042Z,2.50
2018-11-03T02:45:19.047Z,2.43
2018-11-03T02:47:46.101Z,2.43
2018-11-03T02:50:13.150Z,2.73
2018-11-03T02:52:40.196Z,2.70
2018-11-03T02:55:07.241Z,2.47
2018-11-03T02:57:34.297Z,2.50
2018-11-03T03:00:01.339Z,2.60
2018-11-03T03:02:28.387Z,2.77
2018-11-03T03:04:55.440Z,3.00
2018-11-03T03:07:22.484Z,2.77
2018-11-03T03:09:49.534Z,2.83
2018-11-03T03:12:16.587Z,3.10
2018-11-03T03:14:43.574Z,2.70
2018-11-03T03:17:10.679Z,3.03
2018-11-03T03:19:37.733Z,3.13
2018-11-03T03:22:04.775Z,3.00
2018-11-03T03:24:32.378Z,3.27
2018-11-03T03:27:00.000Z,3.20
2018-11-03T03:29:27.067Z,2.87
2018-11-03T03:31:54.103Z,2.93
2018-11-03T03:34:21.155Z,2.93
2018-11-03T03:36:49.117Z,2.70
2018-11-03T03:39:16.169Z,3.00
2018-11-03T03:41:43.212Z,2.93
2018-11-03T03:44:10.166Z,3.20
2018-11-03T03:46:37.206Z,2.97
2018-11-03T03:49:04.122Z,2.90
2018-11-03T03:51:31.616Z,2.93
2018-11-03T03:53:58.660Z,2.70
2018-11-03T03:56:25.612Z,3.00
2018-11-03T03:58:53.169Z,3.17
2018-11-03T04:01:20.624Z,3.57
2018-11-03T04:06:46.056Z,3.00
2018-11-03T04:09:13.105Z,3.10
2018-11-03T04:11:40.163Z,3.03
2018-11-03T04:14:07.211Z,3.27
2018-11-03T04:16:34.159Z,3.30
2018-11-03T04:19:01.206Z,3.37
2018-11-03T04:21:28.251Z,3.53
2018-11-03T04:23:55.304Z,3.20
2018-11-03T04:26:22.343Z,2.80
2018-11-03T04:28:49.296Z,3.00
2018-11-03T04:31:16.850Z,3.20
2018-11-03T04:33:43.907Z,3.20
2018-11-03T04:36:11.869Z,3.30
2018-11-03T04:38:38.925Z,2.80
2018-11-03T04:41:07.603Z,3.20
2018-11-03T04:43:34.661Z,3.07
2018-11-03T04:46:01.704Z,2.90
2018-11-03T04:48:30.081Z,2.93
2018-11-03T04:50:57.156Z,2.97
2018-11-03T04:53:24.078Z,2.83
2018-11-03T04:55:51.739Z,3.30
2018-11-03T04:58:18.795Z,3.07
2018-11-03T05:00:45.859Z,3.27
2018-11-03T05:03:13.885Z,3.07
2018-11-03T05:05:40.860Z,3.30
2018-11-03T05:08:07.905Z,3.07
2018-11-03T05:10:36.398Z,3.17
2018-11-03T05:13:03.332Z,2.60
2018-11-03T05:15:30.388Z,3.27
2018-11-03T05:17:57.891Z,2.97
2018-11-03T05:20:24.888Z,3.00
2018-11-03T05:22:51.936Z,2.73
2018-11-03T05:25:18.993Z,3.10
2018-11-03T05:27:46.034Z,3.33
2018-11-03T05:30:13.083Z,3.00
2018-11-03T05:32:40.136Z,3.00
2018-11-03T05:35:07.792Z,2.73
2018-11-03T05:37:34.744Z,3.17
2018-11-03T05:40:01.790Z,3.10
2018-11-03T05:42:28.837Z,2.80
2018-11-03T05:44:55.890Z,3.30
2018-11-03T05:47:22.946Z,2.93
2018-11-03T05:49:49.981Z,3.23
2018-11-03T05:52:17.036Z,3.20
2018-11-03T05:54:44.081Z,3.60
2018-11-03T05:57:11.127Z,3.17
2018-11-03T05:59:40.224Z,3.20
2018-11-03T06:02:07.221Z,2.87
2018-11-03T06:04:34.219Z,2.70
2018-11-03T06:07:01.272Z,2.77
2018-11-03T06:09:29.242Z,3.97
2018-11-03T06:11:56.274Z,3.23
2018-11-03T06:14:23.335Z,13.70
2018-11-03T06:16:50.696Z,4.70
2018-11-03T06:19:17.740Z,2.20
2018-11-03T06:21:45.404Z,2.10
2018-11-03T06:24:12.457Z,2.80
2018-11-03T06:26:39.499Z,1.93
2018-11-03T06:29:06.548Z,2.20
2018-11-03T06:31:34.621Z,2.20
2018-11-03T06:34:01.567Z,2.20
2018-11-03T06:36:28.615Z,2.10
2018-11-03T06:38:56.669Z,1.73
2018-11-03T06:41:23.637Z,2.17
2018-11-03T06:43:50.682Z,1.77
2018-11-03T06:46:17.756Z,1.93
2018-11-03T06:48:45.708Z,1.97
2018-11-03T06:51:12.653Z,1.80
2018-11-03T06:53:39.695Z,2.03
2018-11-03T06:56:06.849Z,2.20
2018-11-03T06:58:34.203Z,2.17
2018-11-03T07:01:01.256Z,1.80
2018-11-03T07:03:28.301Z,2.27
2018-11-03T07:05:55.349Z,2.10
2018-11-03T07:08:22.502Z,2.00
2018-11-03T07:10:49.553Z,2.00
2018-11-03T07:13:16.683Z,2.40
2018-11-03T07:15:43.646Z,2.50
2018-11-03T07:18:10.699Z,2.50
2018-11-03T07:20:37.746Z,3.90
2018-11-03T07:23:04.790Z,2.70
2018-11-03T07:25:31.846Z,2.60
2018-11-03T07:27:58.901Z,2.70
2018-11-03T07:30:25.936Z,2.40
2018-11-03T07:32:52.881Z,2.10
2018-11-03T07:35:19.934Z,2.30
2018-11-03T07:37:46.877Z,2.30
2018-11-03T07:40:13.926Z,2.83
2018-11-03T07:42:40.956Z,2.20
2018-11-03T07:45:07.923Z,2.43
2018-11-03T07:47:34.976Z,2.33
2018-11-03T07:50:02.018Z,1.90
2018-11-03T07:52:29.088Z,2.23
2018-11-03T07:54:56.211Z,1.90
2018-11-03T07:57:23.113Z,1.87
2018-11-03T07:59:50.212Z,2.00
2018-11-03T08:02:17.772Z,1.90
2018-11-03T08:04:44.923Z,1.90
2018-11-03T08:07:11.971Z,1.80
2018-11-03T08:09:39.025Z,2.10
2018-11-03T08:12:06.068Z,1.80
2018-11-03T08:14:34.793Z,2.10
2018-11-03T08:17:02.159Z,1.73
2018-11-03T08:19:29.165Z,2.00
2018-11-03T08:21:56.316Z,1.63
2018-11-03T08:24:23.361Z,2.00
2018-11-03T08:26:50.864Z,1.70
2018-11-03T08:29:17.867Z,1.87
2018-11-03T08:31:45.059Z,1.80
2018-11-03T08:34:11.964Z,1.80
2018-11-03T08:36:41.372Z,2.50
2018-11-03T08:39:08.416Z,1.60
2018-11-03T08:41:35.465Z,1.63
2018-11-03T08:44:02.519Z,1.80
2018-11-03T08:46:29.561Z,1.87
2018-11-03T08:48:56.579Z,2.00
2018-11-03T08:51:23.558Z,2.03
2018-11-03T08:53:50.604Z,1.80
2018-11-03T08:56:17.659Z,2.00
2018-11-03T08:58:44.702Z,1.80
2018-11-03T09:01:11.753Z,2.00
2018-11-03T09:03:40.436Z,2.07
2018-11-03T09:06:07.491Z,1.87
2018-11-03T09:08:34.536Z,1.90
2018-11-03T09:11:01.585Z,2.00
2018-11-03T09:13:29.451Z,1.90
2018-11-03T09:15:56.499Z,1.73
2018-11-03T09:18:23.553Z,2.00
2018-11-03T09:20:50.704Z,1.60
2018-11-03T09:23:17.748Z,1.60
2018-11-03T09:25:44.898Z,1.70
2018-11-03T09:28:11.946Z,1.80
2018-11-03T09:30:39.002Z,1.73
2018-11-03T09:33:06.045Z,1.87
2018-11-03T09:35:33.093Z,1.73
2018-11-03T09:38:00.081Z,1.70
2018-11-03T09:40:27.213Z,1.70
2018-11-03T09:42:54.244Z,1.55
2018-11-03T09:45:21.293Z,1.87
2018-11-03T09:47:48.334Z,1.83
2018-11-03T09:50:15.406Z,1.60
2018-11-03T09:52:42.437Z,1.70
2018-11-03T09:55:11.837Z,1.62
2018-11-03T09:57:39.812Z,1.50
2018-11-03T10:00:06.856Z,1.58
2018-11-03T10:02:35.546Z,1.73
2018-11-03T10:05:06.030Z,1.35
2018-11-03T10:07:33.535Z,1.25
2018-11-03T10:10:00.585Z,1.17
2018-11-03T10:12:27.636Z,1.37
2018-11-03T10:14:54.988Z,1.33
2018-11-03T10:17:22.033Z,1.33
2018-11-03T10:19:49.090Z,1.30
2018-11-03T10:22:16.695Z,1.30
2018-11-03T10:24:43.696Z,1.48
2018-11-03T10:27:10.739Z,1.30
2018-11-03T10:29:38.711Z,1.50
2018-11-03T10:32:05.763Z,1.20
2018-11-03T10:34:32.808Z,1.45
2018-11-03T10:37:01.493Z,1.40
2018-11-03T10:39:28.543Z,1.40
2018-11-03T10:41:55.618Z,1.35
2018-11-03T10:44:22.639Z,1.50
2018-11-03T10:46:49.591Z,1.30
2018-11-03T10:49:17.762Z,1.40
2018-11-03T10:51:45.014Z,1.40
2018-11-03T10:54:13.090Z,1.65
2018-11-03T10:56:40.137Z,1.20
2018-11-03T10:59:07.364Z,1.50
2018-11-03T11:01:55.157Z,1.50
2018-11-03T11:04:41.938Z,1.40
2018-11-03T11:07:13.800Z,1.50
2018-11-03T11:09:40.847Z,1.52
2018-11-03T11:12:17.826Z,1.40
2018-11-03T11:14:45.796Z,1.30
2018-11-03T11:17:12.788Z,1.52
2018-11-03T11:19:39.790Z,1.37
2018-11-03T11:22:12.522Z,1.58
2018-11-03T11:24:39.540Z,1.58
2018-11-03T11:27:06.569Z,1.40
2018-11-03T11:29:33.721Z,1.33
2018-11-03T11:32:02.044Z,1.30
2018-11-03T11:34:29.052Z,1.60
2018-11-03T11:36:56.094Z,1.48
2018-11-03T11:39:23.144Z,1.50
2018-11-03T11:41:50.196Z,1.45
2018-11-03T11:44:17.493Z,1.70
2018-11-03T11:46:44.601Z,1.92
2018-11-03T11:49:12.267Z,1.50
2018-11-03T11:51:39.512Z,1.65
2018-11-03T11:54:06.662Z,1.75
2018-11-03T11:56:33.717Z,1.50
2018-11-03T11:59:01.274Z,1.40
2018-11-03T12:01:28.327Z,1.60
2018-11-03T12:03:55.373Z,1.50
2018-11-03T12:06:22.521Z,1.58
2018-11-03T12:08:49.570Z,1.55
2018-11-03T12:11:16.624Z,1.60
2018-11-03T12:13:43.776Z,1.70
2018-11-03T12:16:10.876Z,1.80
2018-11-03T12:18:37.868Z,2.92
2018-11-03T12:21:05.231Z,3.47
2018-11-03T12:23:32.272Z,1.80
2018-11-03T12:26:00.243Z,1.50
2018-11-03T12:28:27.495Z,1.85
2018-11-03T12:30:54.544Z,1.60
2018-11-03T12:33:21.598Z,2.03
2018-11-03T12:35:48.640Z,1.73
2018-11-03T12:38:15.592Z,1.95
2018-11-03T12:40:42.658Z,2.10
2018-11-03T12:43:10.093Z,2.00
2018-11-03T12:45:37.142Z,2.00
2018-11-03T12:48:04.171Z,1.75
2018-11-03T12:50:31.254Z,2.30
2018-11-03T12:52:58.391Z,2.70
2018-11-03T12:55:25.494Z,1.80
2018-11-03T12:57:52.498Z,1.60
2018-11-03T13:00:19.486Z,2.10
2018-11-03T13:02:46.490Z,1.80
2018-11-03T13:05:13.801Z,1.95
2018-11-03T13:07:40.686Z,3.78
2018-11-03T13:10:07.713Z,5.70
2018-11-03T13:12:34.678Z,15.50
2018-11-03T13:15:01.631Z,10.00
2018-11-03T13:17:28.673Z,17.58
2018-11-03T13:19:55.722Z,2.10
2018-11-03T13:22:22.776Z,14.15
2018-11-03T13:24:49.718Z,16.65
2018-11-03T13:27:18.403Z,3.80
2018-11-03T13:29:45.456Z,2.50
2018-11-03T13:32:14.241Z,2.15
2018-11-03T13:34:41.303Z,2.70
2018-11-03T13:37:08.337Z,2.42
2018-11-03T13:39:36.717Z,2.60
2018-11-03T13:42:03.766Z,1.83
2018-11-03T13:44:30.717Z,1.90
2018-11-03T13:46:58.079Z,2.00
2018-11-03T13:49:25.573Z,1.90
2018-11-03T13:51:52.584Z,2.05
2018-11-03T13:54:19.624Z,1.90
2018-11-03T13:56:47.500Z,1.92
2018-11-03T13:59:14.745Z,1.87
2018-11-03T14:01:42.000Z,1.80
2018-11-03T14:04:10.687Z,1.73
2018-11-03T14:06:38.867Z,2.00
2018-11-03T14:09:06.729Z,1.80
2018-11-03T14:11:35.017Z,1.95
2018-11-03T14:14:02.057Z,1.70
2018-11-03T14:16:29.575Z,1.90
2018-11-03T14:18:56.664Z,2.00
2018-11-03T14:21:23.712Z,2.00
2018-11-03T14:23:50.660Z,1.70
2018-11-03T14:26:17.657Z,2.10
2018-11-03T14:28:44.656Z,2.40
2018-11-03T14:31:11.704Z,1.58
2018-11-03T14:33:38.757Z,1.80
2018-11-03T14:36:05.807Z,1.87
2018-11-03T14:38:32.850Z,1.83
2018-11-03T14:40:59.902Z,2.05
2018-11-03T14:43:26.945Z,1.90
2018-11-03T14:45:54.013Z,1.90
2018-11-03T14:48:20.982Z,1.73
2018-11-03T14:50:48.080Z,1.80
2018-11-03T14:53:15.044Z,1.70
2018-11-03T14:55:42.090Z,1.90
2018-11-03T14:58:09.082Z,2.70
2018-11-03T15:00:36.287Z,2.50
2018-11-03T15:03:03.345Z,3.65
2018-11-03T15:05:30.382Z,2.45
2018-11-03T15:07:57.435Z,2.33
2018-11-03T15:10:24.320Z,2.92
2018-11-03T15:12:52.993Z,3.40
2018-11-03T15:15:20.016Z,3.60
2018-11-03T15:17:47.367Z,3.67
2018-11-03T15:20:14.416Z,3.15
2018-11-03T15:22:41.567Z,3.22
2018-11-03T15:25:08.930Z,2.90
2018-11-03T15:27:35.916Z,2.03
2018-11-03T15:30:03.020Z,2.08
2018-11-03T15:32:31.809Z,2.17
2018-11-03T15:34:58.827Z,3.00
2018-11-03T15:37:25.804Z,2.42
2018-11-03T15:39:53.467Z,2.87
2018-11-03T15:42:20.522Z,3.62
2018-11-03T15:44:47.565Z,2.60
2018-11-03T15:47:14.665Z,5.65
2018-11-03T15:49:41.667Z,8.50
2018-11-03T15:52:10.052Z,2.30
2018-11-03T15:54:37.913Z,4.70
2018-11-03T15:57:04.963Z,3.17
2018-11-03T15:59:32.009Z,2.33
2018-11-03T16:01:59.061Z,2.10
2018-11-03T16:04:26.111Z,5.65
2018-11-03T16:06:53.153Z,7.28
2018-11-03T16:09:20.202Z,4.12
2018-11-03T16:11:48.993Z,2.70
2018-11-03T16:14:16.041Z,2.15
2018-11-03T16:16:46.472Z,2.92
2018-11-03T16:19:14.758Z,4.35
2018-11-03T16:21:42.482Z,4.60
2018-11-03T16:24:10.391Z,5.00
2018-11-03T16:26:38.246Z,4.30
2018-11-03T16:29:05.397Z,4.60
2018-11-03T16:31:32.451Z,5.37
2018-11-03T16:33:59.495Z,9.02
2018-11-03T16:36:26.547Z,8.50
2018-11-03T16:38:53.489Z,11.10
2018-11-03T16:41:20.537Z,10.73
2018-11-03T16:43:47.591Z,11.18
2018-11-03T16:46:14.635Z,10.50
2018-11-03T16:48:41.682Z,11.60
2018-11-03T16:51:08.736Z,9.10
2018-11-03T16:53:35.780Z,9.05
2018-11-03T16:56:02.833Z,7.12
2018-11-03T16:58:29.922Z,5.00
2018-11-03T17:00:56.930Z,5.15
2018-11-03T17:03:23.979Z,4.28
2018-11-03T17:05:51.126Z,4.12
2018-11-03T17:08:18.584Z,3.83
2018-11-03T17:10:45.838Z,3.92
2018-11-03T17:13:12.927Z,4.45
2018-11-03T17:15:39.943Z,4.30
2018-11-03T17:18:07.013Z,3.75
2018-11-03T17:20:34.033Z,4.22
2018-11-03T17:23:01.146Z,4.30
2018-11-03T17:25:28.237Z,3.85
2018-11-03T17:27:55.279Z,10.27
2018-11-03T17:30:22.637Z,8.93
2018-11-03T17:32:49.690Z,22.73
2018-11-03T17:35:16.733Z,6.90
2018-11-03T17:37:44.640Z,4.22
2018-11-03T17:40:11.649Z,4.07
2018-11-03T17:42:40.644Z,3.55
2018-11-03T17:45:07.691Z,3.83
2018-11-03T17:47:34.772Z,4.28
2018-11-03T17:50:01.798Z,9.13
2018-11-03T17:52:28.838Z,6.35
2018-11-03T17:54:55.985Z,4.18
2018-11-03T17:57:22.935Z,5.18
2018-11-03T17:59:50.046Z,4.05
2018-11-03T18:02:17.239Z,4.03
2018-11-03T18:04:44.300Z,3.90
2018-11-03T18:07:11.342Z,4.40
2018-11-03T18:09:39.304Z,3.87
2018-11-03T18:12:06.353Z,3.78
2018-11-03T18:14:33.408Z,4.40
2018-11-03T18:17:00.451Z,5.97
2018-11-03T18:19:27.502Z,5.80
2018-11-03T18:21:56.290Z,4.80
2018-11-03T18:24:23.277Z,4.97
2018-11-03T18:26:50.284Z,4.87
2018-11-03T18:29:17.332Z,4.60
2018-11-03T18:31:44.321Z,4.90
2018-11-03T18:34:11.333Z,4.90
2018-11-03T18:36:38.383Z,9.02
2018-11-03T18:39:05.534Z,7.80
2018-11-03T18:41:32.606Z,5.40
2018-11-03T18:43:59.625Z,4.40
2018-11-03T18:46:26.809Z,6.40
2018-11-03T18:48:53.831Z,5.90
2018-11-03T18:51:20.776Z,5.65
2018-11-03T18:53:48.751Z,4.82
2018-11-03T18:56:15.793Z,5.43
2018-11-03T18:58:42.842Z,5.65
2018-11-03T19:01:11.122Z,5.90
2018-11-03T19:03:38.165Z,7.12
2018-11-03T19:06:05.213Z,7.20
2018-11-03T19:08:33.125Z,6.78
2018-11-03T19:11:00.845Z,7.20
2018-11-03T19:13:27.894Z,9.30
2018-11-03T19:15:55.356Z,45.95
2018-11-03T19:18:22.407Z,19.23
2018-11-03T19:20:49.758Z,6.25
2018-11-03T19:23:17.377Z,7.25
2018-11-03T19:25:44.412Z,7.87
2018-11-03T19:28:11.415Z,7.50
2018-11-03T19:30:38.473Z,8.45
2018-11-03T19:33:05.513Z,6.93
2018-11-03T19:35:32.561Z,8.23
2018-11-03T19:37:59.616Z,8.10
2018-11-03T19:40:26.725Z,7.93
2018-11-03T19:42:53.706Z,6.62
2018-11-03T19:45:20.803Z,6.87
2018-11-03T19:47:47.802Z,7.12
2018-11-03T19:50:14.852Z,7.53
2018-11-03T19:52:41.909Z,7.95
2018-11-03T19:55:08.952Z,7.60
2018-11-03T19:57:35.997Z,7.22
2018-11-03T20:00:03.666Z,6.93
2018-11-03T20:02:30.728Z,6.60
2018-11-03T20:04:57.758Z,6.40
2018-11-03T20:07:24.814Z,6.45
2018-11-03T20:09:51.921Z,6.82
2018-11-03T20:12:18.904Z,6.45
2018-11-03T20:14:45.960Z,6.18
2018-11-03T20:17:13.002Z,6.07
2018-11-03T20:19:40.052Z,5.75
2018-11-03T20:22:08.026Z,6.05
2018-11-03T20:24:35.072Z,6.15
2018-11-03T20:27:03.041Z,6.00
2018-11-03T20:29:30.805Z,6.20
2018-11-03T20:31:57.912Z,5.87
2018-11-03T20:34:24.903Z,6.07
2018-11-03T20:36:52.975Z,5.72
2018-11-03T20:39:20.023Z,6.60
2018-11-03T20:41:47.061Z,6.32
2018-11-03T20:44:14.472Z,6.12
2018-11-03T20:46:41.523Z,5.78
2018-11-03T20:49:08.530Z,5.90
2018-11-03T20:51:35.882Z,6.18
2018-11-03T20:54:02.935Z,6.10
2018-11-03T20:56:29.984Z,6.00
2018-11-03T20:58:57.335Z,5.20
2018-11-03T21:01:24.393Z,5.57
2018-11-03T21:03:51.436Z,5.55
2018-11-03T21:06:19.094Z,5.62
2018-11-03T21:08:46.142Z,5.53
2018-11-03T21:11:13.198Z,5.50
2018-11-03T21:13:40.240Z,5.25
2018-11-03T21:16:07.290Z,5.07
2018-11-03T21:18:34.368Z,5.50
2018-11-03T21:21:02.001Z,5.30
2018-11-03T21:23:29.215Z,5.72
2018-11-03T21:25:56.103Z,5.82
2018-11-03T21:28:23.147Z,5.55
2018-11-03T21:30:50.194Z,5.30
2018-11-03T21:33:17.282Z,5.00
2018-11-03T21:35:44.399Z,4.90
2018-11-03T21:38:11.414Z,5.43
2018-11-03T21:40:38.492Z,4.95
2018-11-03T21:43:06.362Z,5.00
2018-11-03T21:45:33.411Z,5.22
2018-11-03T21:48:00.463Z,5.30
2018-11-03T21:50:27.508Z,5.55
2018-11-03T21:52:54.559Z,5.05
2018-11-03T21:55:23.453Z,5.15
2018-11-03T21:57:50.493Z,5.07
2018-11-03T22:00:17.543Z,5.30
2018-11-03T22:02:44.535Z,5.00
2018-11-03T22:05:11.537Z,5.80
2018-11-03T22:07:38.591Z,5.45
2018-11-03T22:10:05.635Z,6.03
2018-11-03T22:12:32.733Z,4.65
2018-11-03T22:15:01.274Z,4.95
2018-11-03T22:17:28.317Z,5.53
2018-11-03T22:19:56.191Z,4.80
2018-11-03T22:22:23.233Z,5.00
2018-11-03T22:24:50.281Z,5.00
2018-11-03T22:27:17.336Z,4.47
2018-11-03T22:29:44.380Z,4.57
2018-11-03T22:32:11.532Z,4.85
2018-11-03T22:34:39.754Z,4.43
2018-11-03T22:37:06.760Z,4.65
2018-11-03T22:39:33.705Z,4.55
2018-11-03T22:42:00.821Z,5.03
2018-11-03T22:44:27.797Z,4.75
2018-11-03T22:46:54.782Z,5.78
2018-11-03T22:49:22.311Z,4.57
2018-11-03T22:51:49.440Z,4.43
2018-11-03T22:54:16.404Z,4.68
2018-11-03T22:56:44.376Z,4.82
2018-11-03T22:59:11.459Z,4.05
2018-11-03T23:01:43.285Z,4.22
2018-11-03T23:04:10.329Z,4.20
2018-11-03T23:06:37.281Z,4.10
2018-11-03T23:09:04.324Z,4.00
2018-11-03T23:11:31.275Z,4.25
2018-11-03T23:13:58.319Z,4.45
2018-11-03T23:16:25.271Z,4.05
2018-11-03T23:18:52.424Z,3.40
2018-11-03T23:21:20.888Z,3.90
2018-11-03T23:23:48.761Z,3.70
2018-11-03T23:26:17.770Z,3.28
2018-11-03T23:28:46.555Z,3.40
2018-11-03T23:31:13.599Z,3.37
2018-11-03T23:33:40.647Z,3.40
2018-11-03T23:36:07.701Z,2.70
2018-11-03T23:38:34.695Z,3.12
2018-11-03T23:41:02.813Z,2.87
2018-11-03T23:43:29.866Z,3.20
2018-11-03T23:45:56.813Z,2.58
2018-11-03T23:48:23.861Z,2.92
2018-11-03T23:50:50.915Z,2.90
2018-11-03T23:53:18.027Z,2.70
2018-11-03T23:55:45.126Z,2.70
2018-11-03T23:58:12.158Z,2.65
